Kiluna — FAA8576 — position and weather

sailwx.info

Track history (hours):
 
Tides and Currents Weather Stations Pressure Air Temp Water Temp Dewpoint Dewpoint Depression Visibility Wind Speed Wind Dir Waves Ship Positions

Kiluna

Last reported at 2017-Aug-22 16:00 UTC. Time now 2017-Sep-24 05:00 UTC.
Position N 38°42' W 009°08'.
Warning: this ship's position is 32 days out of date.

Type: Sailing vessel. MMSI: 227163810.

Date/timePositionNaut miles runAvg speedWind from/ knotsBaromVisibWave heightAir tempDewpointWater temp
2017-Aug-22 16:00N 38°42' W 009°08'3 6.9
2017-Aug-22 15:30N 38°41' W 009°12'4 6.9
2017-Aug-22 14:55N 38°41' W 009°17'3 5.7
2017-Aug-22 14:22N 38°38' W 009°18'29 6.1
2017-Aug-22 09:31N 38°11' W 009°04'1 5.6
2017-Aug-22 09:22N 38°10' W 009°03'2 5.8
2017-Aug-22 08:59N 38°08' W 009°02'3 6.2
2017-Aug-22 08:30N 38°05' W 008°60'3 6.0
2017-Aug-22 08:00N 38°03' W 008°58'3 5.7
2017-Aug-22 07:30N 38°00' W 008°56'3 6.3
2017-Aug-22 07:00N 37°57' W 008°54'2 3.6
2017-Aug-22 06:30N 37°57' W 008°52'0 0.5
2017-Aug-22 05:58N 37°57' W 008°52'0 0.0
2017-Aug-22 05:28N 37°57' W 008°52'0 0.0
2017-Aug-22 04:58N 37°57' W 008°52'0 0.0
2017-Aug-22 04:28N 37°57' W 008°52'0 0.0
2017-Aug-22 03:58N 37°57' W 008°52'0 0.0
2017-Aug-22 03:28N 37°57' W 008°52'0 0.0
2017-Aug-22 02:58N 37°57' W 008°52'0 0.0
2017-Aug-22 02:28N 37°57' W 008°52'0 0.0
2017-Aug-22 01:58N 37°57' W 008°52'0 0.0
2017-Aug-22 01:28N 37°57' W 008°52'0 0.0
2017-Aug-22 00:58N 37°57' W 008°52'0 0.0
2017-Aug-22 00:28N 37°57' W 008°52'0 0.0
2017-Aug-21 23:58N 37°57' W 008°52'0 0.0
2017-Aug-21 23:28N 37°57' W 008°52'0 0.0
2017-Aug-21 22:58N 37°57' W 008°52'0 0.0
2017-Aug-21 22:28N 37°57' W 008°52'0 0.0
2017-Aug-21 21:58N 37°57' W 008°52'0 0.0
2017-Aug-21 21:28N 37°57' W 008°52'0 0.0
2017-Aug-21 20:58N 37°57' W 008°52'0 0.0
2017-Aug-21 20:28N 37°57' W 008°52'0 0.0
2017-Aug-21 19:58N 37°57' W 008°52'0 0.0
2017-Aug-21 19:28N 37°57' W 008°52'0 0.0
2017-Aug-21 18:58N 37°57' W 008°52'1 2.8
2017-Aug-21 18:30N 37°56' W 008°52'3 5.6
2017-Aug-21 18:00N 37°53' W 008°51'2 4.2
2017-Aug-21 17:30N 37°51' W 008°53'50 4.3
2017-Aug-21 05:55N 37°03' W 008°39'3 6.3
2017-Aug-21 05:30N 37°04' W 008°36'3 5.2
2017-Aug-21 04:59N 37°05' W 008°33'3 0.1
2017-Aug-19 17:35N 37°05' W 008°30'0 4.9
2017-Aug-19 17:30N 37°05' W 008°29'  
Track history (hours):
 
Tides and Currents Weather Stations Pressure Air Temp Water Temp Dewpoint Dewpoint Depression Visibility Wind Speed Wind Dir Waves Ship Positions

Kiluna

Last reported at 2017-Aug-22 16:00 UTC. Time now 2017-Sep-24 05:00 UTC.
Position N 38°42' W 009°08'.
Warning: this ship's position is 32 days out of date.

Type: Sailing vessel. MMSI: 227163810.

Date/timePositionNaut miles runAvg speedWind from/ knotsBaromVisibWave heightAir tempDewpointWater temp
2017-Aug-22 16:00N 38°42' W 009°08'3 6.9
2017-Aug-22 15:30N 38°41' W 009°12'4 6.9
2017-Aug-22 14:55N 38°41' W 009°17'3 5.7
2017-Aug-22 14:22N 38°38' W 009°18'29 6.1
2017-Aug-22 09:31N 38°11' W 009°04'1 5.6
2017-Aug-22 09:22N 38°10' W 009°03'2 5.8
2017-Aug-22 08:59N 38°08' W 009°02'3 6.2
2017-Aug-22 08:30N 38°05' W 008°60'3 6.0
2017-Aug-22 08:00N 38°03' W 008°58'3 5.7
2017-Aug-22 07:30N 38°00' W 008°56'3 6.3
2017-Aug-22 07:00N 37°57' W 008°54'2 3.6
2017-Aug-22 06:30N 37°57' W 008°52'0 0.5
2017-Aug-22 05:58N 37°57' W 008°52'0 0.0
2017-Aug-22 05:28N 37°57' W 008°52'0 0.0
2017-Aug-22 04:58N 37°57' W 008°52'0 0.0
2017-Aug-22 04:28N 37°57' W 008°52'0 0.0
2017-Aug-22 03:58N 37°57' W 008°52'0 0.0
2017-Aug-22 03:28N 37°57' W 008°52'0 0.0
2017-Aug-22 02:58N 37°57' W 008°52'0 0.0
2017-Aug-22 02:28N 37°57' W 008°52'0 0.0
2017-Aug-22 01:58N 37°57' W 008°52'0 0.0
2017-Aug-22 01:28N 37°57' W 008°52'0 0.0
2017-Aug-22 00:58N 37°57' W 008°52'0 0.0
2017-Aug-22 00:28N 37°57' W 008°52'0 0.0
2017-Aug-21 23:58N 37°57' W 008°52'0 0.0
2017-Aug-21 23:28N 37°57' W 008°52'0 0.0
2017-Aug-21 22:58N 37°57' W 008°52'0 0.0
2017-Aug-21 22:28N 37°57' W 008°52'0 0.0
2017-Aug-21 21:58N 37°57' W 008°52'0 0.0
2017-Aug-21 21:28N 37°57' W 008°52'0 0.0
2017-Aug-21 20:58N 37°57' W 008°52'0 0.0
2017-Aug-21 20:28N 37°57' W 008°52'0 0.0
2017-Aug-21 19:58N 37°57' W 008°52'0 0.0
2017-Aug-21 19:28N 37°57' W 008°52'0 0.0
2017-Aug-21 18:58N 37°57' W 008°52'1 2.8
2017-Aug-21 18:30N 37°56' W 008°52'3 5.6
2017-Aug-21 18:00N 37°53' W 008°51'2 4.2
2017-Aug-21 17:30N 37°51' W 008°53'50 4.3
2017-Aug-21 05:55N 37°03' W 008°39'3 6.3
2017-Aug-21 05:30N 37°04' W 008°36'3 5.2
2017-Aug-21 04:59N 37°05' W 008°33'3 0.1
2017-Aug-19 17:35N 37°05' W 008°30'0 4.9
2017-Aug-19 17:30N 37°05' W 008°29'  

Dump ship's entire track history